Time;durP1;ratioP1;P1;durP2;ratioP2;P2;SDS_P1;SDS_P2;PMS_P1;PMS_P2;Temp;Humidity;BMP_temperature;BMP_pressure;BME280_temperature;BME280_humidity;BME280_pressure;Samples;Min_cycle;Max_cycle;Signal;HPM_P1;HPM_P2
2022/06/07 00:01:04;;;;;;;7.00;1.05;;;13.30;99.90;;;;;;5053029;28;20036;-54
2022/06/07 00:03:30;;;;;;;7.82;2.15;;;13.30;99.90;;;;;;5061719;28;20036;-54
2022/06/07 00:05:56;;;;;;;3.92;1.15;;;13.30;99.90;;;;;;5049181;28;20025;-54
2022/06/07 00:08:22;;;;;;;9.07;1.60;;;13.20;99.90;;;;;;5046668;28;20036;-55
2022/06/07 00:10:48;;;;;;;4.10;1.38;;;13.20;99.90;;;;;;5055694;28;20060;-54
2022/06/07 00:13:16;;;;;;;2.72;1.10;;;13.20;99.90;;;;;;5051609;28;20681;-55
2022/06/07 00:15:42;;;;;;;4.53;1.27;;;13.20;99.90;;;;;;5060497;28;20060;-54
2022/06/07 00:18:09;;;;;;;5.78;1.15;;;13.30;99.90;;;;;;5047778;28;20040;-54
2022/06/07 00:20:36;;;;;;;6.03;1.50;;;13.40;99.90;;;;;;5062989;28;20021;-54
2022/06/07 00:23:06;;;;;;;6.47;1.23;;;13.40;99.90;;;;;;5044305;28;20381;-55
2022/06/07 00:25:33;;;;;;;5.93;1.25;;;13.40;99.90;;;;;;5052968;28;20115;-57
2022/06/07 00:27:59;;;;;;;3.92;1.10;;;13.40;99.90;;;;;;5050941;28;20025;-55
2022/06/07 00:30:26;;;;;;;2.88;1.20;;;13.50;99.90;;;;;;5059641;28;20474;-54
2022/06/07 00:32:52;;;;;;;1.85;0.75;;;13.50;99.90;;;;;;5056923;28;20035;-53
2022/06/07 00:35:18;;;;;;;4.63;1.35;;;13.50;99.90;;;;;;5065526;28;20025;-55
2022/06/07 00:37:44;;;;;;;3.70;1.00;;;13.60;99.90;;;;;;5066204;28;20518;-53
2022/06/07 00:40:11;;;;;;;5.22;1.25;;;13.70;99.90;;;;;;5049976;28;20485;-55
2022/06/07 00:42:37;;;;;;;4.05;0.90;;;13.70;99.90;;;;;;5056808;28;20044;-54
2022/06/07 00:45:03;;;;;;;3.38;1.08;;;13.70;99.90;;;;;;5061945;28;20020;-54
2022/06/07 00:47:31;;;;;;;3.67;1.27;;;13.70;99.90;;;;;;5057298;28;20414;-54
2022/06/07 00:50:25;;;;;;;2.85;1.30;;;13.80;99.90;;;;;;5061748;28;20028;-53
2022/06/07 00:52:50;;;;;;;6.97;1.50;;;13.90;99.90;;;;;;5046843;28;20111;-54
2022/06/07 00:55:17;;;;;;;5.72;1.60;;;14.00;99.90;;;;;;5067303;28;20112;-53
2022/06/07 00:57:43;;;;;;;4.90;2.00;;;14.10;99.90;;;;;;5060742;28;20065;-54
2022/06/07 01:00:12;;;;;;;4.72;1.50;;;14.10;99.90;;;;;;5059893;28;20077;-54
2022/06/07 01:02:38;;;;;;;4.70;1.60;;;14.10;99.90;;;;;;5062456;28;20083;-53
2022/06/07 01:05:04;;;;;;;5.00;1.27;;;14.10;99.90;;;;;;5059182;28;20032;-54
2022/06/07 01:12:58;;;;;;;8.32;1.27;;;14.00;99.90;;;;;;5058153;28;20396;-54
2022/06/07 01:15:24;;;;;;;4.10;1.30;;;14.10;99.90;;;;;;5052282;28;20528;-54
2022/06/07 01:17:49;;;;;;;3.92;1.52;;;14.00;99.90;;;;;;5054784;28;20079;-54
2022/06/07 01:20:15;;;;;;;6.18;1.65;;;14.10;99.90;;;;;;5058530;28;20476;-55
2022/06/07 01:22:41;;;;;;;8.07;1.90;;;14.00;99.90;;;;;;5061215;28;20052;-55
2022/06/07 01:25:09;;;;;;;3.95;1.70;;;14.10;99.90;;;;;;5061144;28;20017;-56
2022/06/07 01:27:34;;;;;;;3.67;1.77;;;14.10;99.90;;;;;;5059094;28;20115;-55
2022/06/07 01:30:00;;;;;;;3.63;1.80;;;14.00;99.90;;;;;;5050732;28;20054;-55
2022/06/07 01:32:26;;;;;;;8.23;1.60;;;14.00;99.90;;;;;;5050091;28;20064;-54
2022/06/07 01:34:53;;;;;;;5.80;1.30;;;14.00;99.90;;;;;;5058869;28;20029;-55
2022/06/07 01:37:19;;;;;;;3.80;1.10;;;14.10;99.90;;;;;;5053645;28;20070;-55
2022/06/07 01:42:30;;;;;;;5.70;1.52;;;14.10;99.90;;;;;;5043698;28;20090;-54
2022/06/07 01:44:56;;;;;;;4.75;1.55;;;14.00;99.90;;;;;;5062647;28;20082;-55
2022/06/07 01:47:29;;;;;;;5.13;1.20;;;14.10;99.90;;;;;;5051250;28;20116;-55
2022/06/07 01:49:55;;;;;;;11.43;1.90;;;14.00;99.90;;;;;;5052596;28;20406;-55
2022/06/07 01:52:25;;;;;;;3.30;1.15;;;14.00;99.90;;;;;;5061716;28;20025;-55
2022/06/07 01:54:51;;;;;;;3.85;1.70;;;14.00;99.90;;;;;;5069070;28;20119;-55
2022/06/07 01:57:21;;;;;;;8.23;2.55;;;14.10;99.90;;;;;;5064746;28;20048;-55
2022/06/07 01:59:47;;;;;;;7.22;1.95;;;14.10;99.90;;;;;;5060127;28;20032;-54
2022/06/07 02:02:13;;;;;;;3.88;1.30;;;14.10;99.90;;;;;;5057945;28;20020;-55
2022/06/07 02:04:41;;;;;;;4.50;1.23;;;14.20;99.90;;;;;;5060229;28;20500;-55
2022/06/07 02:07:08;;;;;;;7.20;1.50;;;14.20;99.90;;;;;;5064399;28;20029;-55
2022/06/07 02:09:34;;;;;;;7.72;2.08;;;14.20;99.90;;;;;;5071957;28;20040;-54
2022/06/07 02:12:00;;;;;;;8.35;1.40;;;14.10;99.90;;;;;;5068204;28;20032;-55
2022/06/07 02:14:27;;;;;;;4.40;1.65;;;14.10;99.90;;;;;;5053318;28;20017;-54
2022/06/07 02:16:53;;;;;;;6.88;2.15;;;14.10;99.90;;;;;;5059689;28;20059;-54
2022/06/07 02:19:18;;;;;;;7.80;1.88;;;14.10;99.90;;;;;;5065028;28;20488;-55
2022/06/07 02:21:45;;;;;;;4.32;1.77;;;14.00;99.90;;;;;;5070661;28;20032;-56
2022/06/07 02:24:11;;;;;;;8.25;1.70;;;14.10;99.90;;;;;;5067541;28;20028;-54
2022/06/07 02:26:50;;;;;;;5.32;1.98;;;14.10;99.90;;;;;;5059594;28;20059;-56
2022/06/07 02:29:28;;;;;;;3.08;1.48;;;14.10;99.90;;;;;;5059447;28;20036;-54
2022/06/07 02:32:01;;;;;;;8.32;1.92;;;14.00;99.90;;;;;;5061259;28;20504;-55
2022/06/07 02:34:28;;;;;;;7.63;3.05;;;14.10;99.90;;;;;;5068649;28;20020;-56
2022/06/07 02:36:59;;;;;;;6.95;2.80;;;14.00;99.90;;;;;;5048222;28;20063;-56
2022/06/07 02:39:25;;;;;;;6.10;2.80;;;14.00;99.90;;;;;;5055321;28;20120;-55
2022/06/07 02:41:53;;;;;;;12.05;3.75;;;14.00;99.90;;;;;;5059648;28;20067;-56
2022/06/07 02:44:20;;;;;;;8.70;3.10;;;14.00;99.90;;;;;;5067898;28;20028;-55
2022/06/07 02:46:45;;;;;;;7.43;2.88;;;14.00;99.90;;;;;;5062182;28;20036;-55
2022/06/07 02:49:11;;;;;;;5.57;2.80;;;14.00;99.90;;;;;;5063728;28;20028;-55
2022/06/07 02:51:37;;;;;;;3.47;2.65;;;14.00;99.90;;;;;;5053981;28;20082;-55
2022/06/07 02:54:03;;;;;;;8.57;2.97;;;14.00;99.90;;;;;;5059037;28;20032;-55
2022/06/07 02:56:28;;;;;;;6.13;3.20;;;14.00;99.90;;;;;;5054648;28;20520;-55
2022/06/07 02:58:54;;;;;;;6.30;2.85;;;14.00;99.90;;;;;;5058357;28;20040;-54
2022/06/07 03:01:20;;;;;;;5.60;2.88;;;14.00;99.90;;;;;;5054913;28;20115;-55
2022/06/07 03:03:45;;;;;;;5.43;2.67;;;14.00;99.90;;;;;;5051500;28;20033;-57
2022/06/07 03:06:11;;;;;;;8.98;3.50;;;14.00;99.90;;;;;;5067568;28;20028;-54
2022/06/07 03:08:38;;;;;;;6.57;3.05;;;14.00;99.90;;;;;;5065909;28;20068;-55
2022/06/07 03:11:04;;;;;;;4.65;2.83;;;14.00;99.90;;;;;;5055945;28;20398;-56
2022/06/07 03:13:30;;;;;;;7.53;3.20;;;14.00;99.90;;;;;;5065740;28;20043;-55
2022/06/07 03:15:56;;;;;;;7.93;3.30;;;14.00;99.90;;;;;;5058651;28;20037;-56
2022/06/07 03:18:22;;;;;;;8.27;2.83;;;14.00;99.90;;;;;;5056366;28;20037;-53
2022/06/07 03:20:50;;;;;;;7.13;2.60;;;14.00;99.90;;;;;;5048807;28;20020;-55
2022/06/07 03:23:16;;;;;;;5.72;3.17;;;13.90;99.90;;;;;;5058215;28;20396;-55
2022/06/07 03:25:42;;;;;;;5.75;3.00;;;13.90;99.90;;;;;;5051751;28;20029;-55
2022/06/07 03:28:08;;;;;;;8.13;3.17;;;13.90;99.90;;;;;;5061069;28;20059;-56
2022/06/07 03:30:34;;;;;;;6.25;3.28;;;13.90;99.90;;;;;;5061061;28;20040;-56
2022/06/07 03:33:00;;;;;;;6.53;3.83;;;13.90;99.90;;;;;;5050299;28;20066;-55
2022/06/07 03:35:26;;;;;;;9.02;3.67;;;13.80;99.90;;;;;;5053736;28;20041;-56
2022/06/07 03:37:52;;;;;;;8.38;3.55;;;13.80;99.90;;;;;;5052027;28;20038;-54
2022/06/07 03:40:43;;;;;;;7.82;3.83;;;13.70;99.90;;;;;;5047106;28;20112;-54
2022/06/07 03:43:05;;;;;;;9.57;3.95;;;13.80;99.90;;;;;;5054105;28;20064;-56
2022/06/07 03:45:31;;;;;;;11.63;4.63;;;13.80;99.90;;;;;;5066821;28;20479;-55
2022/06/07 03:47:57;;;;;;;5.15;2.75;;;13.80;99.90;;;;;;5060961;28;20388;-55
2022/06/07 03:50:23;;;;;;;5.72;3.33;;;13.80;99.90;;;;;;5056313;28;20119;-54
2022/06/07 03:52:49;;;;;;;5.63;3.17;;;13.80;99.90;;;;;;5062867;28;20035;-54
2022/06/07 03:55:15;;;;;;;7.28;3.65;;;13.80;99.90;;;;;;5050730;28;20029;-55
2022/06/07 03:57:40;;;;;;;7.38;4.10;;;13.70;99.90;;;;;;5062631;28;20073;-56
2022/06/07 04:00:07;;;;;;;9.75;4.55;;;13.70;99.90;;;;;;5058914;28;20028;-56
2022/06/07 04:02:34;;;;;;;11.63;5.47;;;13.70;99.90;;;;;;5055934;28;20388;-55
2022/06/07 04:05:00;;;;;;;7.85;5.30;;;13.60;99.90;;;;;;5060559;28;20029;-55
2022/06/07 04:10:11;;;;;;;7.63;3.50;;;13.70;99.90;;;;;;5055903;28;20510;-55
2022/06/07 04:12:37;;;;;;;5.72;3.33;;;13.70;99.90;;;;;;5065326;28;20059;-56
2022/06/07 04:15:03;;;;;;;4.85;3.15;;;13.80;99.90;;;;;;5063941;28;20064;-56
2022/06/07 04:17:29;;;;;;;9.00;3.80;;;13.80;99.90;;;;;;5058127;28;20029;-55
2022/06/07 04:19:54;;;;;;;8.23;4.15;;;13.80;99.90;;;;;;5059193;28;20388;-55
2022/06/07 04:22:20;;;;;;;7.72;4.78;;;13.90;99.90;;;;;;5058767;28;20078;-55
2022/06/07 04:24:46;;;;;;;9.73;4.68;;;14.00;99.90;;;;;;5054720;28;20029;-54
2022/06/07 04:27:13;;;;;;;12.57;6.10;;;14.00;99.90;;;;;;5061274;28;20036;-55
2022/06/07 04:29:39;;;;;;;9.90;5.20;;;13.90;99.90;;;;;;5057049;28;20040;-55
2022/06/07 04:32:05;;;;;;;9.27;4.95;;;13.80;99.90;;;;;;5065847;28;20473;-56
2022/06/07 04:34:31;;;;;;;6.35;4.38;;;13.80;99.90;;;;;;5053208;28;20025;-54
2022/06/07 04:36:57;;;;;;;9.05;4.32;;;13.70;99.90;;;;;;5065437;28;20495;-56
2022/06/07 04:39:23;;;;;;;6.90;4.70;;;13.90;99.90;;;;;;5061359;28;20032;-55
2022/06/07 04:41:48;;;;;;;7.00;4.95;;;13.90;99.90;;;;;;5056389;28;20051;-57
2022/06/07 04:44:14;;;;;;;10.48;4.20;;;13.90;99.90;;;;;;5056964;28;20029;-56
2022/06/07 04:46:40;;;;;;;8.38;4.85;;;13.90;99.90;;;;;;5057678;28;20028;-56
2022/06/07 04:49:06;;;;;;;8.75;4.32;;;13.90;99.90;;;;;;5065114;28;20396;-57
2022/06/07 04:51:34;;;;;;;7.72;4.30;;;13.80;99.90;;;;;;5063828;28;20033;-55
2022/06/07 04:54:01;;;;;;;8.00;4.38;;;13.80;99.90;;;;;;5051465;28;20507;-56
2022/06/07 04:56:33;;;;;;;11.13;4.22;;;13.80;99.90;;;;;;5057054;28;20041;-57
2022/06/07 04:59:00;;;;;;;6.35;4.15;;;14.00;99.90;;;;;;5048372;28;20431;-55
2022/06/07 05:01:38;;;;;;;10.07;4.30;;;14.00;99.90;;;;;;5056925;28;20021;-56
2022/06/07 05:04:05;;;;;;;8.75;5.00;;;13.90;99.90;;;;;;5082559;28;20502;-55
2022/06/07 05:06:39;;;;;;;6.32;3.78;;;13.90;99.90;;;;;;5063508;28;20029;-56
2022/06/07 05:09:17;;;;;;;6.93;4.20;;;13.90;99.90;;;;;;5039624;28;20636;-56
2022/06/07 05:11:47;;;;;;;7.80;4.40;;;14.00;99.90;;;;;;5061051;28;20496;-56
2022/06/07 05:14:12;;;;;;;8.68;5.18;;;14.00;99.90;;;;;;5059027;28;20017;-56
2022/06/07 05:16:40;;;;;;;9.20;5.82;;;14.00;99.90;;;;;;5053703;28;20037;-55
2022/06/07 05:19:06;;;;;;;9.25;5.05;;;14.10;99.90;;;;;;5060194;28;20747;-55
2022/06/07 05:21:32;;;;;;;9.80;5.28;;;14.10;99.90;;;;;;5055422;28;20051;-55
2022/06/07 05:23:58;;;;;;;9.13;5.45;;;14.10;99.90;;;;;;5050431;28;20021;-56
2022/06/07 05:26:42;;;;;;;8.05;4.68;;;14.10;99.90;;;;;;5049728;28;20060;-57
2022/06/07 05:29:25;;;;;;;11.90;6.28;;;14.20;99.90;;;;;;5039063;28;20087;-56
2022/06/07 05:31:51;;;;;;;8.68;5.55;;;14.10;99.90;;;;;;5048554;28;20025;-56
2022/06/07 05:34:17;;;;;;;9.70;5.43;;;14.10;99.90;;;;;;5057166;28;20036;-56
2022/06/07 05:36:43;;;;;;;12.27;6.45;;;14.20;99.90;;;;;;5057030;28;20051;-55
2022/06/07 05:39:35;;;;;;;17.95;6.70;;;14.20;99.90;;;;;;5060950;28;20036;-55
2022/06/07 05:42:01;;;;;;;9.95;6.00;;;14.20;99.90;;;;;;5053794;28;20037;-55
2022/06/07 05:44:27;;;;;;;13.10;6.72;;;14.30;99.90;;;;;;5059349;28;20040;-57
2022/06/07 05:46:53;;;;;;;8.00;5.93;;;14.30;99.90;;;;;;5066156;28;20028;-55
2022/06/07 05:49:20;;;;;;;11.70;6.53;;;14.30;99.90;;;;;;5062762;28;20024;-55
2022/06/07 05:51:46;;;;;;;11.85;6.35;;;14.50;99.90;;;;;;5050648;28;20071;-55
2022/06/07 05:54:13;;;;;;;15.68;8.13;;;14.50;99.90;;;;;;5051629;28;20461;-56
2022/06/07 05:56:40;;;;;;;14.38;7.63;;;14.50;99.90;;;;;;5040870;28;20460;-55
2022/06/07 05:59:06;;;;;;;11.60;7.07;;;14.60;99.90;;;;;;5054415;28;20060;-55
2022/06/07 06:01:34;;;;;;;17.83;7.63;;;14.70;99.90;;;;;;5053073;28;20025;-55
2022/06/07 06:04:03;;;;;;;15.85;7.18;;;14.70;99.90;;;;;;5066540;28;20093;-56
2022/06/07 06:06:30;;;;;;;11.02;7.78;;;14.80;99.90;;;;;;5062992;28;20099;-56
2022/06/07 06:11:40;;;;;;;10.48;7.13;;;14.90;99.90;;;;;;5058199;28;20044;-55
2022/06/07 06:14:06;;;;;;;14.80;8.20;;;15.00;99.90;;;;;;5055467;28;20029;-56
2022/06/07 06:16:32;;;;;;;14.82;8.52;;;15.00;99.90;;;;;;5061615;28;20040;-56
2022/06/07 06:18:59;;;;;;;13.20;9.35;;;15.10;99.90;;;;;;5056606;28;20090;-57
2022/06/07 06:21:28;;;;;;;14.35;8.57;;;15.10;99.90;;;;;;5062439;28;20056;-58
2022/06/07 06:23:57;;;;;;;13.95;8.98;;;15.20;99.90;;;;;;5057562;28;20036;-56
2022/06/07 06:26:23;;;;;;;15.55;9.60;;;15.20;99.90;;;;;;5050333;28;20033;-57
2022/06/07 06:28:49;;;;;;;14.23;8.98;;;15.20;99.90;;;;;;5049444;28;20032;-56
2022/06/07 06:31:16;;;;;;;10.85;7.75;;;15.20;99.90;;;;;;5046095;28;20121;-55
2022/06/07 06:33:44;;;;;;;11.60;7.60;;;15.30;99.90;;;;;;5054720;28;20115;-56
2022/06/07 06:36:13;;;;;;;10.98;6.72;;;15.20;99.90;;;;;;5053404;28;20074;-54
2022/06/07 06:38:39;;;;;;;9.32;6.40;;;15.20;99.90;;;;;;5067070;28;20094;-55
2022/06/07 06:41:11;;;;;;;9.07;6.20;;;15.20;99.90;;;;;;5059174;28;20017;-54
2022/06/07 06:43:38;;;;;;;8.05;4.38;;;15.20;99.90;;;;;;5067187;28;20116;-54
2022/06/07 06:46:09;;;;;;;8.52;4.72;;;15.30;99.90;;;;;;5061088;28;20020;-55
2022/06/07 06:48:35;;;;;;;4.93;3.78;;;15.30;99.90;;;;;;5057355;28;20028;-55
2022/06/07 06:51:06;;;;;;;5.68;3.15;;;15.50;99.90;;;;;;5054008;28;20029;-55
2022/06/07 06:53:33;;;;;;;3.97;3.60;;;15.40;99.90;;;;;;5058597;28;20051;-55
2022/06/07 06:55:58;;;;;;;4.95;3.17;;;15.50;99.90;;;;;;5064745;28;20020;-55
2022/06/07 06:58:25;;;;;;;5.93;2.47;;;15.40;99.90;;;;;;5069425;28;20044;-55
2022/06/07 07:01:03;;;;;;;5.70;2.50;;;15.40;99.90;;;;;;5066552;28;20043;-55
2022/06/07 07:03:30;;;;;;;2.65;2.35;;;15.40;99.90;;;;;;5053711;28;20043;-57
2022/06/07 07:05:56;;;;;;;5.95;2.55;;;15.40;99.90;;;;;;5066453;28;20090;-55
2022/06/07 07:08:24;;;;;;;3.28;2.03;;;15.40;99.90;;;;;;5061540;28;20139;-56
2022/06/07 07:10:50;;;;;;;3.17;2.20;;;15.50;99.90;;;;;;5066994;28;20063;-56
2022/06/07 07:13:16;;;;;;;4.07;2.90;;;15.40;99.90;;;;;;5052798;28;20021;-55
2022/06/07 07:15:51;;;;;;;6.38;2.60;;;15.50;99.90;;;;;;5059058;28;20404;-54
2022/06/07 07:18:16;;;;;;;3.38;3.08;;;15.60;99.90;;;;;;5065241;28;20130;-56
2022/06/07 07:20:42;;;;;;;7.68;3.50;;;15.60;99.90;;;;;;5070228;28;20116;-54
2022/06/07 07:23:08;;;;;;;6.22;3.63;;;15.50;99.90;;;;;;5060478;28;20456;-56
2022/06/07 07:25:34;;;;;;;4.85;3.20;;;15.50;99.90;;;;;;5056244;28;20036;-56
2022/06/07 07:27:59;;;;;;;4.88;2.95;;;15.50;99.90;;;;;;5056347;28;20071;-54
2022/06/07 07:30:25;;;;;;;3.97;2.20;;;15.50;99.90;;;;;;5065704;28;20016;-56
2022/06/07 07:32:51;;;;;;;1.52;1.40;;;15.40;99.90;;;;;;5060948;28;20031;-56
2022/06/07 07:35:18;;;;;;;1.30;1.20;;;15.40;99.90;;;;;;5063086;28;20013;-55
2022/06/07 07:37:45;;;;;;;3.35;1.30;;;15.30;99.90;;;;;;5056213;28;20037;-55
2022/06/07 07:40:11;;;;;;;4.82;1.35;;;15.50;99.90;;;;;;5050570;28;20017;-55
2022/06/07 07:42:36;;;;;;;1.35;1.15;;;15.50;99.90;;;;;;5055410;28;20036;-55
2022/06/07 07:45:02;;;;;;;4.32;1.25;;;15.60;99.90;;;;;;5051318;28;20017;-56
2022/06/07 07:47:29;;;;;;;3.03;1.30;;;15.50;99.90;;;;;;5057649;28;20028;-55
2022/06/07 07:49:55;;;;;;;3.13;2.13;;;15.50;99.90;;;;;;5051895;28;20496;-57
2022/06/07 07:52:21;;;;;;;4.05;1.50;;;15.60;99.90;;;;;;5051349;28;20033;-56
2022/06/07 07:54:47;;;;;;;1.90;0.90;;;15.80;99.90;;;;;;5051998;28;20032;-56
2022/06/07 07:57:13;;;;;;;3.20;1.00;;;15.80;99.90;;;;;;5053701;28;20124;-56
2022/06/07 07:59:39;;;;;;;1.20;1.10;;;15.80;99.90;;;;;;5055864;28;20037;-58
2022/06/07 08:02:05;;;;;;;3.38;0.73;;;15.80;99.90;;;;;;5050735;28;20051;-57
2022/06/07 08:04:30;;;;;;;1.48;0.95;;;15.70;99.90;;;;;;5062610;28;20070;-58
2022/06/07 08:06:56;;;;;;;3.13;0.65;;;15.80;99.90;;;;;;5058014;28;20025;-57
2022/06/07 08:09:23;;;;;;;0.85;0.73;;;15.80;99.90;;;;;;5059344;28;20040;-57
2022/06/07 08:11:48;;;;;;;1.50;0.77;;;15.80;99.90;;;;;;5055345;28;20021;-55
2022/06/07 08:14:18;;;;;;;1.85;1.35;;;15.80;99.90;;;;;;5063516;28;20031;-58
2022/06/07 08:16:45;;;;;;;2.00;0.77;;;15.80;99.90;;;;;;5057146;28;20131;-57
2022/06/07 08:19:11;;;;;;;0.88;0.70;;;15.70;99.90;;;;;;5050621;28;20032;-57
2022/06/07 08:21:39;;;;;;;2.25;0.52;;;15.60;99.90;;;;;;5063867;28;20511;-57
2022/06/07 08:24:06;;;;;;;2.70;0.63;;;15.70;99.90;;;;;;5057374;28;20516;-57
2022/06/07 08:26:32;;;;;;;4.40;0.98;;;15.80;99.90;;;;;;5050128;28;20056;-57
2022/06/07 08:28:59;;;;;;;2.40;0.90;;;15.70;99.90;;;;;;5055810;28;20028;-56
2022/06/07 08:31:28;;;;;;;1.67;0.70;;;15.70;99.90;;;;;;5048862;28;20037;-56
2022/06/07 08:39:22;;;;;;;0.63;0.38;;;15.80;99.90;;;;;;5057190;28;20052;-56
2022/06/07 08:42:18;;;;;;;1.05;0.47;;;15.60;99.90;;;;;;5054947;28;20021;-55
2022/06/07 08:44:55;;;;;;;1.27;0.40;;;15.90;99.90;;;;;;5039871;28;20549;-55
2022/06/07 08:47:31;;;;;;;2.67;0.80;;;16.00;99.90;;;;;;5062731;28;20024;-57
2022/06/07 08:49:59;;;;;;;1.45;0.70;;;16.10;99.90;;;;;;5057269;28;20072;-57
2022/06/07 08:52:33;;;;;;;0.82;0.43;;;16.30;99.90;;;;;;5050223;28;20033;-58
2022/06/07 08:55:01;;;;;;;5.13;0.60;;;16.40;99.90;;;;;;5051556;28;20476;-57
2022/06/07 08:57:36;;;;;;;1.90;0.30;;;16.50;99.90;;;;;;5058424;28;20134;-57
2022/06/07 09:00:22;;;;;;;2.92;0.77;;;16.50;99.90;;;;;;5042296;28;20128;-56
2022/06/07 09:02:54;;;;;;;1.70;0.75;;;16.40;99.90;;;;;;5049899;28;20032;-56
2022/06/07 09:05:19;;;;;;;2.83;0.40;;;16.50;99.90;;;;;;5067040;28;20029;-57
2022/06/07 09:07:46;;;;;;;1.52;0.30;;;16.50;99.90;;;;;;5064170;28;20040;-58
2022/06/07 09:13:02;;;;;;;2.10;1.55;;;16.50;99.90;;;;;;5051791;28;20652;-57
2022/06/07 09:15:33;;;;;;;3.38;0.77;;;16.80;99.90;;;;;;5067211;28;20037;-58
2022/06/07 09:18:01;;;;;;;2.97;1.10;;;16.80;99.90;;;;;;5064109;28;20086;-57
2022/06/07 09:20:41;;;;;;;2.25;0.40;;;17.00;99.90;;;;;;5051463;28;20052;-58
2022/06/07 09:23:42;;;;;;;0.82;0.20;;;16.80;99.90;;;;;;5052975;28;20538;-58
2022/06/07 09:26:27;;;;;;;0.93;0.28;;;16.70;99.90;;;;;;5046694;28;20096;-58
2022/06/07 09:29:33;;;;;;;1.95;0.50;;;16.60;99.90;;;;;;5049209;28;20531;-57
2022/06/07 09:31:59;;;;;;;3.38;1.08;;;16.50;99.90;;;;;;5048867;28;20036;-57
2022/06/07 09:34:28;;;;;;;1.30;0.43;;;16.50;99.90;;;;;;5056160;28;20063;-57
2022/06/07 09:37:12;;;;;;;2.63;0.50;;;16.40;99.90;;;;;;5063169;28;20032;-58
2022/06/07 09:39:41;;;;;;;0.75;0.40;;;16.20;99.90;;;;;;5056877;28;20045;-57
2022/06/07 09:42:26;;;;;;;3.08;0.50;;;16.30;99.90;;;;;;5063300;28;20090;-57
2022/06/07 09:45:07;;;;;;;4.85;0.70;;;16.50;99.90;;;;;;5056513;28;20057;-56
2022/06/07 09:47:33;;;;;;;2.40;0.38;;;16.70;99.90;;;;;;5060418;28;20543;-58
2022/06/07 09:50:02;;;;;;;0.85;0.47;;;16.60;99.90;;;;;;5054673;28;20037;-56
2022/06/07 09:52:49;;;;;;;3.03;0.80;;;16.60;99.90;;;;;;5046837;28;20106;-58
2022/06/07 09:55:21;;;;;;;3.35;1.23;;;16.60;99.90;;;;;;5042465;28;20119;-58
2022/06/07 09:58:25;;;;;;;2.88;0.98;;;16.80;99.90;;;;;;5051591;28;20098;-57
2022/06/07 10:01:04;;;;;;;2.17;0.47;;;16.90;99.90;;;;;;5032671;28;20033;-58
2022/06/07 10:03:32;;;;;;;4.40;0.70;;;16.90;99.90;;;;;;5054728;28;20060;-58
2022/06/07 10:06:40;;;;;;;2.55;1.20;;;16.80;99.90;;;;;;5062585;28;20054;-58
2022/06/07 10:09:27;;;;;;;2.40;0.50;;;16.90;99.90;;;;;;5038391;28;20029;-58
2022/06/07 10:12:11;;;;;;;4.43;0.82;;;16.80;99.90;;;;;;5056163;28;20441;-59
2022/06/07 10:14:55;;;;;;;4.03;0.85;;;16.90;99.90;;;;;;5065617;28;20169;-59
2022/06/07 10:17:52;;;;;;;3.20;0.70;;;16.90;99.90;;;;;;5049861;28;20072;-58
2022/06/07 10:20:22;;;;;;;7.13;0.60;;;16.70;99.90;;;;;;5059150;28;20435;-58
2022/06/07 10:23:09;;;;;;;2.88;0.90;;;16.90;99.90;;;;;;5067209;28;20078;-58
2022/06/07 10:25:58;;;;;;;2.88;0.50;;;17.00;99.90;;;;;;5064004;28;20039;-58
2022/06/07 10:28:35;;;;;;;1.15;0.40;;;17.00;99.90;;;;;;5064203;28;20523;-57
2022/06/07 10:31:37;;;;;;;1.08;0.40;;;17.00;99.90;;;;;;5047908;28;20033;-59
2022/06/07 10:34:14;;;;;;;1.40;0.40;;;17.00;99.90;;;;;;5062991;28;20025;-57
2022/06/07 10:37:06;;;;;;;0.98;0.60;;;17.00;99.90;;;;;;5058221;28;20464;-58
2022/06/07 10:39:41;;;;;;;;;;;17.00;99.90;;;;;;5061102;28;20119;-57
2022/06/07 10:42:40;;;;;;;0.70;0.52;;;16.90;99.90;;;;;;5054031;28;19908;-57
2022/06/07 10:45:16;;;;;;;2.00;0.35;;;16.90;99.90;;;;;;5043309;28;20021;-58
2022/06/07 10:48:03;;;;;;;2.08;0.80;;;16.90;99.90;;;;;;5059974;28;20492;-57
2022/06/07 10:50:28;;;;;;;5.20;1.55;;;16.90;99.90;;;;;;5054451;28;20448;-58
2022/06/07 10:53:19;;;;;;;5.05;1.10;;;17.00;99.90;;;;;;5058293;28;20037;-58
2022/06/07 10:55:54;;;;;;;6.80;1.65;;;16.90;99.90;;;;;;5066144;28;20354;-58
2022/06/07 10:58:28;;;;;;;6.90;1.98;;;17.00;99.90;;;;;;5051693;28;20329;-59
2022/06/07 11:01:14;;;;;;;2.50;0.98;;;16.90;99.90;;;;;;5052683;28;20437;-58
2022/06/07 11:03:59;;;;;;;2.33;1.00;;;16.90;99.90;;;;;;5055171;28;20044;-58
2022/06/07 11:09:27;;;;;;;2.47;0.60;;;17.00;99.90;;;;;;5051970;28;20083;-57
2022/06/07 11:11:59;;;;;;;3.67;0.50;;;17.00;99.90;;;;;;5055805;28;20070;-57
2022/06/07 11:14:54;;;;;;;2.42;0.30;;;16.80;99.90;;;;;;5064759;28;20107;-58
2022/06/07 11:17:26;;;;;;;0.50;0.20;;;16.70;99.90;;;;;;5050480;28;20448;-58
2022/06/07 11:19:53;;;;;;;1.55;0.38;;;16.70;99.90;;;;;;5061737;28;20707;-58
2022/06/07 11:22:23;;;;;;;2.38;0.25;;;16.80;99.90;;;;;;5055865;28;20036;-59
2022/06/07 11:24:59;;;;;;;2.40;0.55;;;17.00;99.90;;;;;;5052664;28;20029;-58
2022/06/07 11:27:27;;;;;;;2.35;0.43;;;17.10;99.90;;;;;;5043790;28;20082;-58
2022/06/07 11:30:20;;;;;;;2.08;0.20;;;17.50;99.90;;;;;;5064067;28;20059;-57
2022/06/07 11:32:53;;;;;;;1.58;0.20;;;17.50;99.90;;;;;;5062643;28;20375;-58
2022/06/07 11:36:12;;;;;;;1.17;0.40;;;17.60;99.90;;;;;;5051056;28;20112;-57
2022/06/07 11:38:59;;;;;;;3.83;0.50;;;17.30;99.90;;;;;;5012470;28;20039;-57
2022/06/07 11:41:37;;;;;;;1.92;0.35;;;17.10;99.90;;;;;;5015455;28;20034;-58
2022/06/07 11:44:11;;;;;;;2.78;0.93;;;16.90;99.90;;;;;;5011888;28;20072;-61
2022/06/07 11:46:46;;;;;;;5.15;1.00;;;16.60;99.90;;;;;;5027836;28;20036;-58
2022/06/07 11:49:21;;;;;;;4.10;1.33;;;16.60;99.90;;;;;;5023127;28;20046;-62
2022/06/07 11:51:59;;;;;;;4.20;1.00;;;16.60;99.90;;;;;;5019262;28;20025;-57
2022/06/07 11:54:48;;;;;;;6.43;1.05;;;16.50;99.90;;;;;;5020266;28;20396;-57
2022/06/07 11:57:35;;;;;;;3.08;0.98;;;16.30;99.90;;;;;;5009697;28;20247;-57
2022/06/07 12:00:19;;;;;;;9.05;1.55;;;16.20;99.90;;;;;;5007220;28;20147;-58
2022/06/07 12:02:57;;;;;;;10.45;1.90;;;16.40;99.90;;;;;;5010641;28;20112;-58
2022/06/07 12:05:45;;;;;;;9.23;1.35;;;16.50;99.90;;;;;;5013657;28;20045;-60
2022/06/07 12:08:32;;;;;;;14.13;1.52;;;16.60;99.90;;;;;;5020704;28;20611;-58
2022/06/07 12:11:20;;;;;;;7.47;1.80;;;16.50;99.90;;;;;;5064618;28;20078;-57
2022/06/07 12:13:52;;;;;;;10.40;3.13;;;16.70;99.90;;;;;;5039696;28;20033;-57
2022/06/07 12:16:37;;;;;;;11.70;2.47;;;16.60;99.90;;;;;;5062702;28;20080;-57
2022/06/07 12:19:16;;;;;;;12.50;2.60;;;17.00;99.90;;;;;;5057291;28;20041;-58
2022/06/07 12:21:45;;;;;;;11.00;1.85;;;17.20;99.90;;;;;;5063756;28;20024;-57
2022/06/07 12:24:15;;;;;;;11.50;1.67;;;17.30;99.90;;;;;;5057014;28;20090;-57
2022/06/07 12:26:41;;;;;;;5.78;1.80;;;17.20;99.90;;;;;;5050023;28;20033;-57
2022/06/07 12:29:07;;;;;;;8.40;1.90;;;17.50;99.90;;;;;;5053465;28;20766;-57
2022/06/07 12:31:42;;;;;;;4.55;1.00;;;17.50;99.90;;;;;;5065334;28;20115;-58
2022/06/07 12:34:30;;;;;;;8.90;1.95;;;17.50;99.90;;;;;;5059091;28;20076;-57
2022/06/07 12:36:58;;;;;;;8.35;1.50;;;17.50;99.90;;;;;;5065574;28;20033;-58
2022/06/07 12:39:25;;;;;;;4.63;1.02;;;17.30;99.90;;;;;;5060984;28;20037;-58
2022/06/07 12:41:56;;;;;;;6.97;2.17;;;17.30;99.90;;;;;;5056829;28;20067;-57
2022/06/07 12:44:50;;;;;;;5.75;1.27;;;17.40;99.90;;;;;;5054690;28;20496;-56
2022/06/07 12:47:34;;;;;;;4.85;1.23;;;17.10;99.90;;;;;;5061839;28;20122;-58
2022/06/07 12:50:01;;;;;;;3.55;1.35;;;17.40;99.90;;;;;;5041055;28;20036;-57
2022/06/07 12:52:31;;;;;;;7.10;1.92;;;17.50;99.90;;;;;;5050068;28;20534;-57
2022/06/07 12:55:10;;;;;;;6.47;1.45;;;17.80;99.90;;;;;;5058554;28;20063;-58
2022/06/07 12:57:50;;;;;;;3.30;0.77;;;17.90;99.90;;;;;;5059173;28;20523;-56
2022/06/07 13:00:20;;;;;;;3.83;1.42;;;18.00;99.90;;;;;;5046217;28;20033;-57
2022/06/07 13:02:51;;;;;;;6.80;0.95;;;17.90;99.90;;;;;;5051537;28;20025;-57
2022/06/07 13:05:22;;;;;;;0.98;0.60;;;17.70;99.90;;;;;;5041211;28;20047;-58
2022/06/07 13:07:57;;;;;;;3.15;0.90;;;17.70;99.90;;;;;;5062442;28;20032;-56
2022/06/07 13:10:29;;;;;;;4.97;1.08;;;17.50;99.90;;;;;;5048663;28;20029;-57
2022/06/07 13:12:59;;;;;;;6.93;1.67;;;17.50;99.90;;;;;;5051307;28;20260;-57
2022/06/07 13:15:31;;;;;;;3.33;0.75;;;18.00;99.90;;;;;;5055890;28;20111;-57
2022/06/07 13:18:00;;;;;;;4.68;0.90;;;18.30;99.90;;;;;;5063306;28;20511;-57
2022/06/07 13:20:40;;;;;;;5.35;1.10;;;18.70;99.90;;;;;;5057167;28;20388;-57
2022/06/07 13:23:31;;;;;;;6.60;0.80;;;18.80;99.90;;;;;;5052630;28;20499;-57
2022/06/07 13:26:22;;;;;;;2.33;0.60;;;18.70;99.90;;;;;;5037020;28;20041;-58
2022/06/07 13:29:18;;;;;;;6.97;0.87;;;18.10;99.90;;;;;;5049386;28;20045;-58
2022/06/07 13:31:49;;;;;;;3.05;0.95;;;18.00;99.90;;;;;;5064428;28;20028;-58